Location Greenlaw, NA, UK

ob NPTOHCUK 192200Z AUTO 32000KT CLR CLR 00/M03 A3036 RMK SLPNO 

2018.03.19 2200 UTC
Wind from the NW (317 degrees) at Calm MPH ( KT) gusting to 0 MPH (0 KT)
Visibility    Mile(s)
Weather: CLR
Sky Conditions  clear
Temperature 31.3 F (-0 C)
Dew Point 26.4 F (-3 C)
Relative Humidity 82%
Pressure   30.363 in. Hg (1028 hPa)
Rain  0.00 in.
Daily Rain  in.

Station Name  New Palace Theatre Organ Heritage Centre
Longitude, Latitude  -2.46, 55.71
Elevation 525
Station URL http://www.nptohc.co.uk/weather
Software Type WeatherDisplay:10.37P